createdAt,value
2023-01-05T00:01:23.099Z,1027.72
2023-01-05T00:03:50.172Z,1027.69
2023-01-05T00:06:18.710Z,1027.47
2023-01-05T00:08:45.999Z,1027.38
2023-01-05T00:11:15.004Z,1027.34
2023-01-05T00:13:43.981Z,1027.16
2023-01-05T00:16:13.298Z,1027.05
2023-01-05T00:18:40.126Z,1027.01
2023-01-05T00:21:13.215Z,1027.05
2023-01-05T00:23:41.336Z,1027.10
2023-01-05T00:26:08.538Z,1027.08
2023-01-05T00:28:35.606Z,1027.05
2023-01-05T00:31:04.109Z,1027.13
2023-01-05T00:33:30.891Z,1027.11
2023-01-05T00:36:02.166Z,1027.09
2023-01-05T00:38:29.021Z,1026.99
2023-01-05T00:40:57.352Z,1026.96
2023-01-05T00:43:24.125Z,1027.16
2023-01-05T00:45:51.008Z,1027.21
2023-01-05T00:48:19.015Z,1027.16
2023-01-05T00:50:50.848Z,1027.04
2023-01-05T00:53:17.692Z,1027.06
2023-01-05T00:55:44.657Z,1027.11
2023-01-05T00:58:13.098Z,1026.99
2023-01-05T01:00:47.501Z,1026.93
2023-01-05T01:03:14.841Z,1026.95
2023-01-05T01:05:41.689Z,1026.92
2023-01-05T01:08:09.602Z,1026.99
2023-01-05T01:10:42.140Z,1026.86
2023-01-05T01:13:10.167Z,1026.67
2023-01-05T01:15:46.115Z,1026.70
2023-01-05T01:18:15.628Z,1026.80
2023-01-05T01:20:42.908Z,1026.71
2023-01-05T01:23:10.329Z,1026.63
2023-01-05T01:25:38.704Z,1026.63
2023-01-05T01:28:06.036Z,1026.56
2023-01-05T01:30:32.898Z,1026.50
2023-01-05T01:33:01.253Z,1026.59
2023-01-05T01:35:28.034Z,1026.65
2023-01-05T01:37:56.875Z,1026.60
2023-01-05T01:40:23.631Z,1026.66
2023-01-05T01:42:50.524Z,1026.64
2023-01-05T01:45:20.551Z,1026.58
2023-01-05T01:47:54.999Z,1026.63
2023-01-05T01:50:29.031Z,1026.61
2023-01-05T01:53:00.097Z,1026.57
2023-01-05T01:55:27.975Z,1026.56
2023-01-05T01:57:58.654Z,1026.50
2023-01-05T02:00:25.588Z,1026.48
2023-01-05T02:02:55.002Z,1026.53
2023-01-05T02:05:27.889Z,1026.53
2023-01-05T02:07:54.672Z,1026.64
2023-01-05T02:10:36.614Z,1026.58
2023-01-05T02:13:18.378Z,1026.55
2023-01-05T02:15:52.828Z,1026.42
2023-01-05T02:18:31.025Z,1026.29
2023-01-05T02:21:24.297Z,1026.21
2023-01-05T02:24:24.413Z,1026.16
2023-01-05T02:27:39.672Z,1026.17
2023-01-05T02:30:56.036Z,1025.99
2023-01-05T02:33:39.592Z,1025.85
2023-01-05T02:36:15.993Z,1025.81
2023-01-05T02:38:49.699Z,1025.66
2023-01-05T02:41:24.009Z,1025.71
2023-01-05T02:43:50.986Z,1025.72
2023-01-05T02:46:17.933Z,1025.52
2023-01-05T02:48:51.942Z,1025.53
2023-01-05T02:51:22.946Z,1025.45
2023-01-05T02:53:54.999Z,1025.51
2023-01-05T02:56:24.928Z,1025.40
2023-01-05T02:58:56.847Z,1025.56
2023-01-05T03:01:30.241Z,1025.36
2023-01-05T03:04:03.350Z,1025.33
2023-01-05T03:06:35.215Z,1025.32
2023-01-05T03:09:04.852Z,1025.36
2023-01-05T03:11:43.154Z,1025.48
2023-01-05T03:14:14.689Z,1025.21
2023-01-05T03:16:41.499Z,1025.27
2023-01-05T03:19:12.861Z,1025.40
2023-01-05T03:21:41.551Z,1025.34
2023-01-05T03:24:08.505Z,1025.42
2023-01-05T03:26:35.579Z,1025.44
2023-01-05T03:29:03.317Z,1025.52
2023-01-05T03:31:34.058Z,1025.45
2023-01-05T03:34:09.651Z,1025.48
2023-01-05T03:36:44.119Z,1025.48
2023-01-05T03:39:16.984Z,1025.52
2023-01-05T03:41:45.067Z,1025.45
2023-01-05T03:44:14.177Z,1025.18
2023-01-05T03:46:41.389Z,1025.27
2023-01-05T03:49:08.664Z,1025.42
2023-01-05T03:51:41.467Z,1025.53
2023-01-05T03:54:10.613Z,1025.37
2023-01-05T03:56:37.596Z,1025.26
2023-01-05T03:59:04.617Z,1025.14
2023-01-05T04:01:31.732Z,1025.09
2023-01-05T04:04:04.217Z,1025.13
2023-01-05T04:06:31.241Z,1025.36
2023-01-05T04:09:00.584Z,1025.24
2023-01-05T04:11:29.008Z,1025.08
2023-01-05T04:13:57.336Z,1025.05
2023-01-05T04:16:24.487Z,1025.00
2023-01-05T04:18:51.695Z,1024.90
2023-01-05T04:21:18.417Z,1024.92
2023-01-05T04:23:47.904Z,1024.86
2023-01-05T04:26:17.996Z,1024.92
2023-01-05T04:28:46.116Z,1024.74
2023-01-05T04:31:14.172Z,1024.70
2023-01-05T04:33:41.129Z,1024.61
2023-01-05T04:36:10.671Z,1024.58
2023-01-05T04:38:37.648Z,1024.65
2023-01-05T04:41:06.567Z,1024.63
2023-01-05T04:43:33.311Z,1024.67
2023-01-05T04:46:02.788Z,1024.80
2023-01-05T04:48:31.347Z,1024.78
2023-01-05T04:50:59.632Z,1024.76
2023-01-05T04:53:26.439Z,1024.81
2023-01-05T04:55:53.391Z,1024.79
2023-01-05T04:58:21.791Z,1024.73
2023-01-05T05:00:49.324Z,1024.77
2023-01-05T05:03:18.098Z,1024.59
2023-01-05T05:05:47.658Z,1024.48
2023-01-05T05:08:14.410Z,1024.37
2023-01-05T05:10:41.607Z,1024.37
2023-01-05T05:13:09.677Z,1024.43
2023-01-05T05:15:36.797Z,1024.39
2023-01-05T05:18:09.227Z,1024.23
2023-01-05T05:20:41.272Z,1024.29
2023-01-05T05:23:08.102Z,1024.34
2023-01-05T05:25:35.051Z,1024.30
2023-01-05T05:28:02.093Z,1024.22
2023-01-05T05:30:30.279Z,1024.25
2023-01-05T05:32:57.299Z,1024.27
2023-01-05T05:35:24.520Z,1024.12
2023-01-05T05:37:56.570Z,1024.28
2023-01-05T05:40:23.826Z,1024.24
2023-01-05T05:42:50.737Z,1024.14
2023-01-05T05:45:18.102Z,1024.14
2023-01-05T05:47:46.007Z,1024.14
2023-01-05T05:50:13.110Z,1023.94
2023-01-05T05:52:41.183Z,1023.98
2023-01-05T05:55:10.074Z,1023.96
2023-01-05T05:57:38.173Z,1023.80
2023-01-05T06:00:07.929Z,1023.91
2023-01-05T06:02:35.064Z,1023.83
2023-01-05T06:05:02.426Z,1023.79
2023-01-05T06:07:29.249Z,1023.95
2023-01-05T06:09:56.107Z,1023.87
2023-01-05T06:12:24.440Z,1024.01
2023-01-05T06:14:51.744Z,1024.14
2023-01-05T06:17:18.675Z,1024.04
2023-01-05T06:19:45.817Z,1023.97
2023-01-05T06:22:14.517Z,1023.92
2023-01-05T06:24:42.658Z,1023.79
2023-01-05T06:27:09.425Z,1023.83
2023-01-05T06:29:37.904Z,1023.97
2023-01-05T06:32:05.233Z,1024.07
2023-01-05T06:34:32.087Z,1024.22
2023-01-05T06:37:02.224Z,1024.20
2023-01-05T06:39:29.413Z,1024.10
2023-01-05T06:41:58.438Z,1023.94
2023-01-05T06:44:25.206Z,1024.15
2023-01-05T06:46:56.131Z,1024.05
2023-01-05T06:49:25.489Z,1023.89
2023-01-05T06:51:53.673Z,1023.84
2023-01-05T06:54:20.751Z,1023.95
2023-01-05T06:56:50.817Z,1023.80
2023-01-05T06:59:17.608Z,1023.86
2023-01-05T07:01:48.420Z,1023.82
2023-01-05T07:04:17.220Z,1023.75
2023-01-05T07:06:45.041Z,1023.82
2023-01-05T07:09:11.776Z,1023.88
2023-01-05T07:11:39.806Z,1023.89
2023-01-05T07:14:12.556Z,1023.78
2023-01-05T07:16:39.545Z,1023.77
2023-01-05T07:19:06.385Z,1023.81
2023-01-05T07:21:35.249Z,1023.81
2023-01-05T07:24:04.200Z,1023.63
2023-01-05T07:26:31.555Z,1023.57
2023-01-05T07:28:58.526Z,1023.60
2023-01-05T07:31:26.720Z,1023.77
2023-01-05T07:33:54.843Z,1023.88
2023-01-05T07:36:21.951Z,1023.80
2023-01-05T07:38:52.303Z,1024.00
2023-01-05T07:41:19.729Z,1023.89
2023-01-05T07:43:49.408Z,1023.80
2023-01-05T07:46:16.208Z,1023.73
2023-01-05T07:48:45.596Z,1023.71
2023-01-05T07:51:12.408Z,1023.76
2023-01-05T07:53:44.291Z,1023.78
2023-01-05T07:56:13.905Z,1023.74
2023-01-05T07:58:42.372Z,1023.78
2023-01-05T08:01:11.792Z,1023.75
2023-01-05T08:03:42.153Z,1023.69
2023-01-05T08:06:11.242Z,1023.70
2023-01-05T08:08:39.436Z,1023.70
2023-01-05T08:11:09.533Z,1023.81
2023-01-05T08:13:39.277Z,1023.78
2023-01-05T08:16:07.068Z,1023.73
2023-01-05T08:18:34.005Z,1023.92
2023-01-05T08:21:02.025Z,1023.83
2023-01-05T08:23:28.792Z,1023.79
2023-01-05T08:25:56.529Z,1023.78
2023-01-05T08:28:24.654Z,1023.74
2023-01-05T08:31:00.763Z,1023.71
2023-01-05T08:33:27.916Z,1023.69
2023-01-05T08:35:55.185Z,1023.73
2023-01-05T08:38:22.611Z,1023.73
2023-01-05T08:40:49.558Z,1023.85
2023-01-05T08:43:19.045Z,1023.83
2023-01-05T08:45:49.222Z,1023.95
2023-01-05T08:48:19.021Z,1023.80
2023-01-05T08:50:47.648Z,1023.82
2023-01-05T08:53:14.786Z,1023.80
2023-01-05T08:55:41.764Z,1023.68
2023-01-05T08:58:10.090Z,1023.81
2023-01-05T09:00:39.291Z,1023.82
2023-01-05T09:03:06.464Z,1023.64
2023-01-05T09:05:34.722Z,1023.70
2023-01-05T09:08:02.884Z,1023.73
2023-01-05T09:10:29.896Z,1023.59
2023-01-05T09:12:57.736Z,1023.57
2023-01-05T09:15:24.845Z,1023.63
2023-01-05T09:17:54.179Z,1023.68
2023-01-05T09:20:21.768Z,1023.40
2023-01-05T09:22:50.211Z,1023.34
2023-01-05T09:25:17.141Z,1023.22
2023-01-05T09:27:45.128Z,1023.19
2023-01-05T09:30:13.689Z,1023.10
2023-01-05T09:32:41.543Z,1023.06
2023-01-05T09:35:10.248Z,1022.91
2023-01-05T09:37:38.382Z,1022.78
2023-01-05T09:40:09.644Z,1022.66
2023-01-05T09:42:42.263Z,1022.74
2023-01-05T09:45:18.121Z,1022.57
2023-01-05T09:47:46.317Z,1022.45
2023-01-05T09:50:19.744Z,1022.39
2023-01-05T09:52:47.233Z,1022.44
2023-01-05T09:55:18.185Z,1022.24
2023-01-05T09:57:52.647Z,1022.23
2023-01-05T10:00:22.210Z,1022.10
2023-01-05T10:02:53.328Z,1022.05
2023-01-05T10:05:21.464Z,1022.02
2023-01-05T10:07:55.405Z,1021.96
2023-01-05T10:10:42.832Z,1021.87
2023-01-05T10:13:21.859Z,1021.71
2023-01-05T10:15:53.415Z,1021.68
2023-01-05T10:18:25.633Z,1021.74
2023-01-05T10:21:07.472Z,1021.55
2023-01-05T10:23:52.563Z,1021.58
2023-01-05T10:26:28.436Z,1021.44
2023-01-05T10:29:02.286Z,1021.36
2023-01-05T10:31:57.177Z,1021.28
2023-01-05T10:34:42.920Z,1021.26
2023-01-05T10:37:28.360Z,1021.26
2023-01-05T10:40:12.001Z,1021.26
2023-01-05T10:42:49.476Z,1021.19
2023-01-05T10:45:19.458Z,1021.16
2023-01-05T10:47:48.587Z,1021.09
2023-01-05T10:50:31.756Z,1021.09
2023-01-05T10:53:07.745Z,1021.02
2023-01-05T10:55:43.806Z,1021.16
2023-01-05T10:58:24.006Z,1021.12
2023-01-05T11:00:52.672Z,1021.20
2023-01-05T11:04:03.915Z,1021.16
2023-01-05T11:06:20.289Z,1021.13
2023-01-05T11:08:48.939Z,1020.94
2023-01-05T11:11:22.429Z,1020.90
2023-01-05T11:13:54.999Z,1020.91
2023-01-05T11:16:24.960Z,1020.69
2023-01-05T11:18:55.654Z,1020.73
2023-01-05T11:21:23.977Z,1020.58
2023-01-05T11:23:53.321Z,1020.58
2023-01-05T11:26:32.272Z,1020.44
2023-01-05T11:29:03.802Z,1020.23
2023-01-05T11:31:36.609Z,1020.30
2023-01-05T11:34:14.322Z,1020.07
2023-01-05T11:36:43.332Z,1020.07
2023-01-05T11:39:27.839Z,1020.03
2023-01-05T11:42:20.273Z,1019.92
2023-01-05T11:44:55.509Z,1019.82
2023-01-05T11:47:26.399Z,1019.75
2023-01-05T11:50:08.457Z,1019.74
2023-01-05T11:52:38.268Z,1019.63
2023-01-05T11:55:39.215Z,1019.63
2023-01-05T11:58:18.094Z,1019.68
2023-01-05T12:01:27.423Z,1019.71
2023-01-05T12:04:20.119Z,1019.74
2023-01-05T12:07:01.458Z,1019.61
2023-01-05T12:09:35.353Z,1019.55
2023-01-05T12:12:18.441Z,1019.42
2023-01-05T12:15:26.658Z,1019.43
2023-01-05T12:18:12.871Z,1019.42
2023-01-05T12:20:56.444Z,1019.45
2023-01-05T12:23:43.467Z,1019.43
2023-01-05T12:26:21.085Z,1019.49
2023-01-05T12:30:43.412Z,1019.53
2023-01-05T12:35:41.504Z,1019.32
2023-01-05T12:38:23.774Z,1019.32
2023-01-05T12:41:09.145Z,1019.34
2023-01-05T12:43:50.954Z,1019.36
2023-01-05T12:46:29.929Z,1019.31
2023-01-05T12:49:00.619Z,1019.16
2023-01-05T12:51:37.160Z,1019.26
2023-01-05T12:54:10.286Z,1019.21
2023-01-05T12:56:42.532Z,1019.35
2023-01-05T12:59:17.147Z,1019.17
2023-01-05T13:01:59.125Z,1019.44
2023-01-05T13:04:42.894Z,1019.31
2023-01-05T13:07:21.537Z,1019.30
2023-01-05T13:10:02.095Z,1019.27
2023-01-05T13:12:33.271Z,1019.23
2023-01-05T13:15:07.323Z,1019.25
2023-01-05T13:17:42.350Z,1019.14
2023-01-05T13:20:23.164Z,1019.02
2023-01-05T13:23:07.319Z,1018.95
2023-01-05T13:25:45.594Z,1019.04
2023-01-05T13:28:24.026Z,1019.13
2023-01-05T13:31:23.549Z,1019.09
2023-01-05T13:34:12.278Z,1019.09
2023-01-05T13:36:57.966Z,1019.20
2023-01-05T13:39:50.064Z,1019.17
2023-01-05T13:42:46.631Z,1019.11
2023-01-05T13:45:37.405Z,1019.10
2023-01-05T13:48:44.222Z,1018.99
2023-01-05T13:51:36.376Z,1019.13
2023-01-05T13:54:07.403Z,1019.21
2023-01-05T13:56:41.087Z,1019.20
2023-01-05T13:59:24.632Z,1019.27
2023-01-05T14:02:04.574Z,1019.25
2023-01-05T14:04:34.038Z,1019.34
2023-01-05T14:07:11.696Z,1019.38
2023-01-05T14:09:43.602Z,1019.39
2023-01-05T14:12:49.590Z,1019.52
2023-01-05T14:15:35.312Z,1019.69
2023-01-05T14:18:03.613Z,1019.70
2023-01-05T14:20:36.515Z,1019.62
2023-01-05T14:23:20.599Z,1019.69
2023-01-05T14:25:50.376Z,1019.81
2023-01-05T14:28:35.728Z,1019.63
2023-01-05T14:31:43.711Z,1019.65
2023-01-05T14:34:19.490Z,1019.55
2023-01-05T14:37:06.762Z,1019.63
2023-01-05T14:39:42.482Z,1019.73
2023-01-05T14:42:21.335Z,1019.86
2023-01-05T14:44:51.763Z,1019.77
2023-01-05T14:47:34.115Z,1019.91
2023-01-05T14:50:02.064Z,1019.84
2023-01-05T14:52:53.956Z,1019.84
2023-01-05T14:55:37.059Z,1019.84
2023-01-05T14:58:11.528Z,1019.90
2023-01-05T15:00:49.374Z,1019.99
2023-01-05T15:03:30.619Z,1019.98
2023-01-05T15:06:08.305Z,1019.96
2023-01-05T15:09:15.246Z,1019.89
2023-01-05T15:12:09.601Z,1020.00
2023-01-05T15:14:59.374Z,1019.97
2023-01-05T15:17:53.188Z,1019.96
2023-01-05T15:21:00.616Z,1020.04
2023-01-05T15:23:53.549Z,1020.10
2023-01-05T15:26:40.907Z,1020.21
2023-01-05T15:29:45.273Z,1020.26
2023-01-05T15:32:18.423Z,1020.15
2023-01-05T15:34:52.410Z,1020.20
2023-01-05T15:37:23.948Z,1020.34
2023-01-05T15:39:58.239Z,1020.19
2023-01-05T15:42:33.797Z,1020.26
2023-01-05T15:45:02.111Z,1020.37
2023-01-05T15:47:33.360Z,1020.54
2023-01-05T15:50:02.872Z,1020.54
2023-01-05T15:52:35.260Z,1020.69
2023-01-05T15:55:12.036Z,1020.79
2023-01-05T15:57:39.095Z,1020.72
2023-01-05T16:00:16.241Z,1020.90
2023-01-05T16:02:43.145Z,1020.92
2023-01-05T16:05:16.498Z,1020.94
2023-01-05T16:07:48.964Z,1021.17
2023-01-05T16:10:18.673Z,1021.43
2023-01-05T16:12:51.325Z,1021.35
2023-01-05T16:15:24.456Z,1021.40
2023-01-05T16:17:55.897Z,1021.39
2023-01-05T16:20:25.800Z,1021.71
2023-01-05T16:23:04.492Z,1021.58
2023-01-05T16:25:40.801Z,1021.54
2023-01-05T16:28:15.676Z,1021.72
2023-01-05T16:30:43.061Z,1021.67
2023-01-05T16:33:29.551Z,1021.81
2023-01-05T16:36:09.869Z,1021.84
2023-01-05T16:38:38.468Z,1021.97
2023-01-05T16:41:14.331Z,1022.00
2023-01-05T16:43:45.129Z,1021.88
2023-01-05T16:46:40.673Z,1021.85
2023-01-05T16:49:32.462Z,1021.76
2023-01-05T16:52:03.632Z,1021.76
2023-01-05T16:54:33.256Z,1021.76
2023-01-05T16:57:01.844Z,1021.83
2023-01-05T16:59:43.877Z,1021.88
2023-01-05T17:02:34.680Z,1021.94
2023-01-05T17:05:01.534Z,1021.92
2023-01-05T17:07:29.873Z,1021.97
2023-01-05T17:09:57.219Z,1022.08
2023-01-05T17:12:25.364Z,1022.11
2023-01-05T17:14:53.560Z,1022.03
2023-01-05T17:17:20.547Z,1022.16
2023-01-05T17:22:19.538Z,1022.19
2023-01-05T17:24:50.433Z,1022.38
2023-01-05T17:27:17.473Z,1022.48
2023-01-05T17:29:44.256Z,1022.19
2023-01-05T17:32:11.201Z,1022.40
2023-01-05T17:34:40.587Z,1022.29
2023-01-05T17:37:12.382Z,1022.46
2023-01-05T17:39:39.176Z,1022.45
2023-01-05T17:42:09.697Z,1022.61
2023-01-05T17:44:36.717Z,1022.55
2023-01-05T17:47:03.845Z,1022.55
2023-01-05T17:49:30.700Z,1022.74
2023-01-05T17:52:00.760Z,1022.92
2023-01-05T17:54:33.933Z,1022.69
2023-01-05T17:57:02.123Z,1022.72
2023-01-05T17:59:30.464Z,1022.72
2023-01-05T18:01:59.738Z,1022.76
2023-01-05T18:04:27.342Z,1022.90
2023-01-05T18:06:55.944Z,1022.94
2023-01-05T18:11:52.606Z,1022.85
2023-01-05T18:14:20.031Z,1022.86
2023-01-05T18:16:48.605Z,1022.90
2023-01-05T18:19:15.857Z,1022.87
2023-01-05T18:24:10.655Z,1022.59
2023-01-05T18:26:37.678Z,1022.70
2023-01-05T18:29:10.189Z,1022.74
2023-01-05T18:31:40.024Z,1022.69
2023-01-05T18:34:13.499Z,1022.85
2023-01-05T18:36:40.556Z,1022.88
2023-01-05T18:39:07.587Z,1022.92
2023-01-05T18:41:34.845Z,1023.01
2023-01-05T18:44:01.684Z,1022.78
2023-01-05T18:46:29.305Z,1022.70
2023-01-05T18:48:56.367Z,1022.93
2023-01-05T18:55:03.390Z,1022.91
2023-01-05T18:57:30.572Z,1022.96
2023-01-05T18:59:57.895Z,1023.03
2023-01-05T19:02:25.152Z,1022.90
2023-01-05T19:04:52.172Z,1022.80
2023-01-05T19:07:22.822Z,1022.85
2023-01-05T19:09:52.218Z,1022.91
2023-01-05T19:12:22.929Z,1022.91
2023-01-05T19:14:49.984Z,1022.97
2023-01-05T19:17:17.830Z,1022.99
2023-01-05T19:19:44.836Z,1023.03
2023-01-05T19:22:28.184Z,1023.18
2023-01-05T19:24:56.793Z,1023.20
2023-01-05T19:27:26.603Z,1023.20
2023-01-05T19:29:53.765Z,1023.14
2023-01-05T19:32:20.599Z,1023.27
2023-01-05T19:34:47.722Z,1023.33
2023-01-05T19:37:14.497Z,1023.27
2023-01-05T19:39:41.292Z,1023.36
2023-01-05T19:42:09.312Z,1023.44
2023-01-05T19:44:39.389Z,1023.37
2023-01-05T19:47:06.357Z,1023.38
2023-01-05T19:49:33.221Z,1023.43
2023-01-05T19:52:00.478Z,1023.34
2023-01-05T19:54:27.369Z,1023.44
2023-01-05T19:56:54.516Z,1023.46
2023-01-05T19:59:23.550Z,1023.59
2023-01-05T20:01:54.412Z,1023.69
2023-01-05T20:04:21.589Z,1023.66
2023-01-05T20:06:48.837Z,1023.70
2023-01-05T20:09:18.491Z,1023.61
2023-01-05T20:11:48.677Z,1023.60
2023-01-05T20:14:17.636Z,1023.68
2023-01-05T20:16:47.786Z,1023.83
2023-01-05T20:19:17.741Z,1023.89
2023-01-05T20:21:44.909Z,1023.87
2023-01-05T20:24:18.200Z,1023.94
2023-01-05T20:26:45.826Z,1024.10
2023-01-05T20:29:15.034Z,1024.22
2023-01-05T20:31:44.419Z,1024.17
2023-01-05T20:34:16.492Z,1024.16
2023-01-05T20:36:46.644Z,1024.19
2023-01-05T20:39:16.607Z,1024.15
2023-01-05T20:41:46.328Z,1024.31
2023-01-05T20:44:14.186Z,1024.44
2023-01-05T20:46:43.500Z,1024.44
2023-01-05T20:49:11.326Z,1024.58
2023-01-05T20:51:39.177Z,1024.52
2023-01-05T20:54:07.880Z,1024.52
2023-01-05T20:56:39.142Z,1024.44
2023-01-05T20:59:12.558Z,1024.58
2023-01-05T21:01:39.338Z,1024.56
2023-01-05T21:04:06.869Z,1024.43
2023-01-05T21:06:34.695Z,1024.47
2023-01-05T21:09:02.192Z,1024.40
2023-01-05T21:11:30.546Z,1024.43
2023-01-05T21:13:58.375Z,1024.48
2023-01-05T21:16:30.481Z,1024.46
2023-01-05T21:18:59.754Z,1024.63
2023-01-05T21:21:30.071Z,1024.65
2023-01-05T21:23:56.941Z,1024.80
2023-01-05T21:26:24.216Z,1024.96
2023-01-05T21:28:55.159Z,1024.78
2023-01-05T21:31:23.751Z,1024.74
2023-01-05T21:33:51.786Z,1024.74
2023-01-05T21:36:20.484Z,1024.71
2023-01-05T21:39:02.436Z,1024.91
2023-01-05T21:41:30.526Z,1024.77
2023-01-05T21:43:58.673Z,1024.83
2023-01-05T21:46:25.543Z,1024.72
2023-01-05T21:48:52.562Z,1024.76
2023-01-05T21:51:19.973Z,1024.64
2023-01-05T21:53:49.225Z,1024.61
2023-01-05T21:56:16.122Z,1024.67
2023-01-05T21:58:43.099Z,1024.72
2023-01-05T22:01:11.671Z,1024.70
2023-01-05T22:03:40.734Z,1024.67
2023-01-05T22:06:08.044Z,1024.64
2023-01-05T22:08:35.284Z,1024.70
2023-01-05T22:11:02.611Z,1024.79
2023-01-05T22:13:31.463Z,1024.97
2023-01-05T22:15:58.832Z,1025.05
2023-01-05T22:18:27.528Z,1025.12
2023-01-05T22:20:58.868Z,1025.18
2023-01-05T22:23:27.154Z,1025.23
2023-01-05T22:25:59.650Z,1025.20
2023-01-05T22:28:27.058Z,1025.21
2023-01-05T22:31:02.653Z,1025.26
2023-01-05T22:33:31.937Z,1025.30
2023-01-05T22:36:00.354Z,1025.35
2023-01-05T22:38:27.843Z,1025.35
2023-01-05T22:40:57.879Z,1025.38
2023-01-05T22:43:25.931Z,1025.49
2023-01-05T22:45:54.405Z,1025.61
2023-01-05T22:48:21.656Z,1025.69
2023-01-05T22:50:51.003Z,1025.78
2023-01-05T22:53:17.788Z,1025.85
2023-01-05T22:55:45.820Z,1025.92
2023-01-05T22:58:12.590Z,1026.02
2023-01-05T23:00:40.425Z,1026.14
2023-01-05T23:03:07.529Z,1026.05
2023-01-05T23:05:40.510Z,1026.16
2023-01-05T23:08:10.757Z,1026.16
2023-01-05T23:10:37.551Z,1026.13
2023-01-05T23:13:04.673Z,1026.13
2023-01-05T23:15:31.692Z,1026.06
2023-01-05T23:18:02.863Z,1026.06
2023-01-05T23:20:29.966Z,1025.99
2023-01-05T23:22:58.158Z,1026.03
2023-01-05T23:25:26.408Z,1025.95
2023-01-05T23:27:54.678Z,1025.88
2023-01-05T23:30:21.496Z,1025.97
2023-01-05T23:32:48.515Z,1025.94
2023-01-05T23:35:15.400Z,1026.13
2023-01-05T23:37:44.842Z,1026.26
2023-01-05T23:40:12.362Z,1026.11
2023-01-05T23:42:40.680Z,1026.01
2023-01-05T23:45:08.929Z,1025.98
2023-01-05T23:47:35.794Z,1025.92
2023-01-05T23:50:03.263Z,1025.95
2023-01-05T23:52:30.536Z,1026.03
2023-01-05T23:54:57.507Z,1026.16
2023-01-05T23:57:24.247Z,1026.19
2023-01-05T23:59:52.769Z,1026.18
